Tonsina, Alaska
Current Conditions -  °F | °C
As of 8:53 AM on Friday 31 Oct 2014 (Local Time) from PAGK Reporting Station
Overcast Overcast  
Wind Chill:   Ceiling: 1800
Heat Index:   Visibility: 10mi
Dew Point:   Wind: 3mph
Humidity: 87%   Direction: NA
Pressure: 29.33"   Gusts: NA
Location:  61.66°N, 145.18°W
Report Text: PAGK 311653Z AUTO VRB03KT 10SM OVC018 M13/M15 A2933 RMK AO2 SLP981 T11331150 TSNO
Loading
Personal Weather Stations






























Interactive Weather Map
Tropical Storm Tracking
New forecast layout! Learn more

10-Day Weather Forecast

Advertisements
Track Severe Weather on mobile